sensor_id;sensor_type;location;lat;lon;timestamp;P1;durP1;ratioP1;P2;durP2;ratioP2
48014;SDS011;33780;51.034;7.120;2024-03-07T00:01:37;21.30;;;11.98;;
48014;SDS011;33780;51.034;7.120;2024-03-07T00:04:02;20.70;;;11.82;;
48014;SDS011;33780;51.034;7.120;2024-03-07T00:06:28;20.63;;;11.45;;
48014;SDS011;33780;51.034;7.120;2024-03-07T00:08:53;19.83;;;11.15;;
48014;SDS011;33780;51.034;7.120;2024-03-07T00:11:20;20.35;;;12.18;;
48014;SDS011;33780;51.034;7.120;2024-03-07T00:13:45;22.60;;;12.20;;
48014;SDS011;33780;51.034;7.120;2024-03-07T00:16:11;19.02;;;11.90;;
48014;SDS011;33780;51.034;7.120;2024-03-07T00:18:36;20.23;;;11.88;;
48014;SDS011;33780;51.034;7.120;2024-03-07T00:21:02;21.73;;;12.27;;
48014;SDS011;33780;51.034;7.120;2024-03-07T00:23:28;19.40;;;11.70;;
48014;SDS011;33780;51.034;7.120;2024-03-07T00:25:53;21.85;;;11.57;;
48014;SDS011;33780;51.034;7.120;2024-03-07T00:28:18;21.50;;;11.95;;
48014;SDS011;33780;51.034;7.120;2024-03-07T00:30:44;20.15;;;11.60;;
48014;SDS011;33780;51.034;7.120;2024-03-07T00:33:10;22.40;;;12.15;;
48014;SDS011;33780;51.034;7.120;2024-03-07T00:35:38;19.75;;;11.63;;
48014;SDS011;33780;51.034;7.120;2024-03-07T00:38:04;20.33;;;11.20;;
48014;SDS011;33780;51.034;7.120;2024-03-07T00:40:29;22.63;;;12.02;;
48014;SDS011;33780;51.034;7.120;2024-03-07T00:42:56;20.13;;;11.32;;
48014;SDS011;33780;51.034;7.120;2024-03-07T00:45:21;20.17;;;11.73;;
48014;SDS011;33780;51.034;7.120;2024-03-07T00:47:47;20.73;;;11.82;;
48014;SDS011;33780;51.034;7.120;2024-03-07T00:50:13;19.15;;;11.00;;
48014;SDS011;33780;51.034;7.120;2024-03-07T00:52:38;20.83;;;11.32;;
48014;SDS011;33780;51.034;7.120;2024-03-07T00:55:04;19.73;;;11.60;;
48014;SDS011;33780;51.034;7.120;2024-03-07T00:57:33;23.98;;;12.23;;
48014;SDS011;33780;51.034;7.120;2024-03-07T00:59:59;21.02;;;11.85;;
48014;SDS011;33780;51.034;7.120;2024-03-07T01:02:24;22.00;;;11.60;;
48014;SDS011;33780;51.034;7.120;2024-03-07T01:04:50;20.58;;;11.65;;
48014;SDS011;33780;51.034;7.120;2024-03-07T01:07:16;21.30;;;12.05;;
48014;SDS011;33780;51.034;7.120;2024-03-07T01:09:41;20.83;;;11.30;;
48014;SDS011;33780;51.034;7.120;2024-03-07T01:12:06;21.75;;;11.80;;
48014;SDS011;33780;51.034;7.120;2024-03-07T01:14:32;20.15;;;11.40;;
48014;SDS011;33780;51.034;7.120;2024-03-07T01:16:57;21.23;;;11.38;;
48014;SDS011;33780;51.034;7.120;2024-03-07T01:19:23;22.73;;;11.98;;
48014;SDS011;33780;51.034;7.120;2024-03-07T01:21:49;19.90;;;11.35;;
48014;SDS011;33780;51.034;7.120;2024-03-07T01:24:14;21.58;;;12.00;;
48014;SDS011;33780;51.034;7.120;2024-03-07T01:26:43;19.63;;;11.07;;
48014;SDS011;33780;51.034;7.120;2024-03-07T01:29:08;20.85;;;11.15;;
48014;SDS011;33780;51.034;7.120;2024-03-07T01:31:34;18.88;;;10.48;;
48014;SDS011;33780;51.034;7.120;2024-03-07T01:33:59;18.27;;;10.23;;
48014;SDS011;33780;51.034;7.120;2024-03-07T01:36:25;18.33;;;10.25;;
48014;SDS011;33780;51.034;7.120;2024-03-07T01:38:50;19.67;;;11.07;;
48014;SDS011;33780;51.034;7.120;2024-03-07T01:41:16;21.75;;;10.85;;
48014;SDS011;33780;51.034;7.120;2024-03-07T01:43:42;20.80;;;10.85;;
48014;SDS011;33780;51.034;7.120;2024-03-07T01:46:07;20.75;;;11.27;;
48014;SDS011;33780;51.034;7.120;2024-03-07T01:48:33;19.27;;;11.13;;
48014;SDS011;33780;51.034;7.120;2024-03-07T01:50:59;22.05;;;11.50;;
48014;SDS011;33780;51.034;7.120;2024-03-07T01:53:25;19.85;;;11.50;;
48014;SDS011;33780;51.034;7.120;2024-03-07T01:55:52;20.52;;;10.98;;
48014;SDS011;33780;51.034;7.120;2024-03-07T01:58:19;22.42;;;11.60;;
48014;SDS011;33780;51.034;7.120;2024-03-07T02:00:46;20.85;;;11.40;;
48014;SDS011;33780;51.034;7.120;2024-03-07T02:03:12;21.73;;;11.07;;
48014;SDS011;33780;51.034;7.120;2024-03-07T02:05:38;21.38;;;11.45;;
48014;SDS011;33780;51.034;7.120;2024-03-07T02:08:04;22.52;;;12.32;;
48014;SDS011;33780;51.034;7.120;2024-03-07T02:10:30;20.92;;;11.23;;
48014;SDS011;33780;51.034;7.120;2024-03-07T02:12:55;22.85;;;11.75;;
48014;SDS011;33780;51.034;7.120;2024-03-07T02:15:20;21.83;;;11.70;;
48014;SDS011;33780;51.034;7.120;2024-03-07T02:17:46;21.63;;;11.48;;
48014;SDS011;33780;51.034;7.120;2024-03-07T02:20:11;20.73;;;11.23;;
48014;SDS011;33780;51.034;7.120;2024-03-07T02:22:38;23.58;;;12.13;;
48014;SDS011;33780;51.034;7.120;2024-03-07T02:25:03;20.73;;;10.85;;
48014;SDS011;33780;51.034;7.120;2024-03-07T02:27:29;19.95;;;10.68;;
48014;SDS011;33780;51.034;7.120;2024-03-07T02:29:54;19.10;;;10.25;;
48014;SDS011;33780;51.034;7.120;2024-03-07T02:32:20;21.80;;;10.75;;
48014;SDS011;33780;51.034;7.120;2024-03-07T02:34:45;20.75;;;11.30;;
48014;SDS011;33780;51.034;7.120;2024-03-07T02:37:12;21.88;;;11.05;;
48014;SDS011;33780;51.034;7.120;2024-03-07T02:39:37;24.00;;;12.20;;
48014;SDS011;33780;51.034;7.120;2024-03-07T02:42:03;21.77;;;11.20;;
48014;SDS011;33780;51.034;7.120;2024-03-07T02:44:28;22.60;;;12.07;;
48014;SDS011;33780;51.034;7.120;2024-03-07T02:46:55;20.27;;;11.52;;
48014;SDS011;33780;51.034;7.120;2024-03-07T02:49:20;22.23;;;11.98;;
48014;SDS011;33780;51.034;7.120;2024-03-07T02:51:46;22.15;;;10.80;;
48014;SDS011;33780;51.034;7.120;2024-03-07T02:54:12;23.20;;;11.77;;
48014;SDS011;33780;51.034;7.120;2024-03-07T02:56:37;23.20;;;12.10;;
48014;SDS011;33780;51.034;7.120;2024-03-07T02:59:02;21.95;;;11.15;;
48014;SDS011;33780;51.034;7.120;2024-03-07T03:01:28;22.73;;;11.45;;
48014;SDS011;33780;51.034;7.120;2024-03-07T03:03:53;19.67;;;10.75;;
48014;SDS011;33780;51.034;7.120;2024-03-07T03:06:19;20.85;;;11.10;;
48014;SDS011;33780;51.034;7.120;2024-03-07T03:08:47;21.88;;;11.93;;
48014;SDS011;33780;51.034;7.120;2024-03-07T03:11:13;23.75;;;11.63;;
48014;SDS011;33780;51.034;7.120;2024-03-07T03:13:39;22.95;;;11.85;;
48014;SDS011;33780;51.034;7.120;2024-03-07T03:16:05;23.17;;;11.30;;
48014;SDS011;33780;51.034;7.120;2024-03-07T03:18:32;19.42;;;10.30;;
48014;SDS011;33780;51.034;7.120;2024-03-07T03:20:59;18.85;;;10.68;;
48014;SDS011;33780;51.034;7.120;2024-03-07T03:23:25;20.92;;;11.23;;
48014;SDS011;33780;51.034;7.120;2024-03-07T03:25:50;20.20;;;10.77;;
48014;SDS011;33780;51.034;7.120;2024-03-07T03:28:15;21.52;;;11.00;;
48014;SDS011;33780;51.034;7.120;2024-03-07T03:30:44;22.38;;;11.50;;
48014;SDS011;33780;51.034;7.120;2024-03-07T03:33:09;21.25;;;11.73;;
48014;SDS011;33780;51.034;7.120;2024-03-07T03:35:35;20.77;;;10.80;;
48014;SDS011;33780;51.034;7.120;2024-03-07T03:38:01;21.23;;;11.52;;
48014;SDS011;33780;51.034;7.120;2024-03-07T03:40:27;20.80;;;11.15;;
48014;SDS011;33780;51.034;7.120;2024-03-07T03:42:52;22.00;;;11.57;;
48014;SDS011;33780;51.034;7.120;2024-03-07T03:45:18;21.15;;;11.45;;
48014;SDS011;33780;51.034;7.120;2024-03-07T03:47:44;21.33;;;10.93;;
48014;SDS011;33780;51.034;7.120;2024-03-07T03:50:10;22.27;;;11.60;;
48014;SDS011;33780;51.034;7.120;2024-03-07T03:52:36;19.55;;;10.20;;
48014;SDS011;33780;51.034;7.120;2024-03-07T03:55:02;19.25;;;10.52;;
48014;SDS011;33780;51.034;7.120;2024-03-07T03:57:30;22.05;;;11.23;;
48014;SDS011;33780;51.034;7.120;2024-03-07T03:59:56;20.30;;;11.55;;
48014;SDS011;33780;51.034;7.120;2024-03-07T04:02:22;24.60;;;11.88;;
48014;SDS011;33780;51.034;7.120;2024-03-07T04:04:47;22.85;;;11.65;;
48014;SDS011;33780;51.034;7.120;2024-03-07T04:07:13;22.50;;;11.75;;
48014;SDS011;33780;51.034;7.120;2024-03-07T04:09:40;21.48;;;11.07;;
48014;SDS011;33780;51.034;7.120;2024-03-07T04:12:06;24.95;;;11.80;;
48014;SDS011;33780;51.034;7.120;2024-03-07T04:14:34;22.58;;;11.23;;
48014;SDS011;33780;51.034;7.120;2024-03-07T04:17:00;23.17;;;11.40;;
48014;SDS011;33780;51.034;7.120;2024-03-07T04:19:27;21.13;;;11.13;;
48014;SDS011;33780;51.034;7.120;2024-03-07T04:21:52;21.35;;;11.45;;
48014;SDS011;33780;51.034;7.120;2024-03-07T04:24:19;22.45;;;11.55;;
48014;SDS011;33780;51.034;7.120;2024-03-07T04:26:44;23.75;;;11.38;;
48014;SDS011;33780;51.034;7.120;2024-03-07T04:29:10;20.92;;;11.15;;
48014;SDS011;33780;51.034;7.120;2024-03-07T04:31:36;22.63;;;12.10;;
48014;SDS011;33780;51.034;7.120;2024-03-07T04:34:02;23.23;;;12.02;;
48014;SDS011;33780;51.034;7.120;2024-03-07T04:36:27;23.20;;;11.85;;
48014;SDS011;33780;51.034;7.120;2024-03-07T04:38:53;21.33;;;11.20;;
48014;SDS011;33780;51.034;7.120;2024-03-07T04:41:19;22.75;;;11.95;;
48014;SDS011;33780;51.034;7.120;2024-03-07T04:43:44;22.98;;;11.55;;
48014;SDS011;33780;51.034;7.120;2024-03-07T04:46:10;20.50;;;11.20;;
48014;SDS011;33780;51.034;7.120;2024-03-07T04:48:35;20.65;;;11.07;;
48014;SDS011;33780;51.034;7.120;2024-03-07T04:51:01;21.13;;;11.13;;
48014;SDS011;33780;51.034;7.120;2024-03-07T04:53:28;23.20;;;11.82;;
48014;SDS011;33780;51.034;7.120;2024-03-07T04:55:53;20.35;;;10.90;;
48014;SDS011;33780;51.034;7.120;2024-03-07T04:58:19;22.55;;;11.10;;
48014;SDS011;33780;51.034;7.120;2024-03-07T05:00:44;21.63;;;11.13;;
48014;SDS011;33780;51.034;7.120;2024-03-07T05:03:09;21.63;;;11.10;;
48014;SDS011;33780;51.034;7.120;2024-03-07T05:05:36;21.13;;;11.10;;
48014;SDS011;33780;51.034;7.120;2024-03-07T05:08:01;18.75;;;10.40;;
48014;SDS011;33780;51.034;7.120;2024-03-07T05:10:29;19.88;;;10.95;;
48014;SDS011;33780;51.034;7.120;2024-03-07T05:12:55;21.67;;;11.15;;
48014;SDS011;33780;51.034;7.120;2024-03-07T05:15:23;21.20;;;10.43;;
48014;SDS011;33780;51.034;7.120;2024-03-07T05:17:51;21.23;;;11.15;;
48014;SDS011;33780;51.034;7.120;2024-03-07T05:20:21;20.45;;;11.15;;
48014;SDS011;33780;51.034;7.120;2024-03-07T05:22:46;21.42;;;11.13;;
48014;SDS011;33780;51.034;7.120;2024-03-07T05:25:18;20.90;;;10.98;;
48014;SDS011;33780;51.034;7.120;2024-03-07T05:27:44;21.05;;;11.10;;
48014;SDS011;33780;51.034;7.120;2024-03-07T05:30:10;21.05;;;10.88;;
48014;SDS011;33780;51.034;7.120;2024-03-07T05:32:38;20.30;;;10.50;;
48014;SDS011;33780;51.034;7.120;2024-03-07T05:35:04;21.33;;;11.50;;
48014;SDS011;33780;51.034;7.120;2024-03-07T05:37:30;23.25;;;10.85;;
48014;SDS011;33780;51.034;7.120;2024-03-07T05:39:56;22.15;;;11.25;;
48014;SDS011;33780;51.034;7.120;2024-03-07T05:42:22;23.52;;;10.95;;
48014;SDS011;33780;51.034;7.120;2024-03-07T05:44:50;23.25;;;12.68;;
48014;SDS011;33780;51.034;7.120;2024-03-07T05:47:15;22.65;;;11.77;;
48014;SDS011;33780;51.034;7.120;2024-03-07T05:49:42;21.42;;;11.00;;
48014;SDS011;33780;51.034;7.120;2024-03-07T05:52:07;23.08;;;11.30;;
48014;SDS011;33780;51.034;7.120;2024-03-07T05:54:32;23.13;;;12.00;;
48014;SDS011;33780;51.034;7.120;2024-03-07T05:56:58;23.17;;;11.65;;
48014;SDS011;33780;51.034;7.120;2024-03-07T05:59:23;22.23;;;11.27;;
48014;SDS011;33780;51.034;7.120;2024-03-07T06:01:48;21.33;;;11.10;;
48014;SDS011;33780;51.034;7.120;2024-03-07T06:04:15;21.42;;;10.52;;
48014;SDS011;33780;51.034;7.120;2024-03-07T06:06:41;21.52;;;11.25;;
48014;SDS011;33780;51.034;7.120;2024-03-07T06:09:10;20.13;;;10.35;;
48014;SDS011;33780;51.034;7.120;2024-03-07T06:11:39;23.23;;;11.52;;
48014;SDS011;33780;51.034;7.120;2024-03-07T06:14:08;23.15;;;11.35;;
48014;SDS011;33780;51.034;7.120;2024-03-07T06:16:37;20.17;;;11.00;;
48014;SDS011;33780;51.034;7.120;2024-03-07T06:19:03;22.27;;;10.77;;
48014;SDS011;33780;51.034;7.120;2024-03-07T06:21:32;20.50;;;10.55;;
48014;SDS011;33780;51.034;7.120;2024-03-07T06:24:01;20.80;;;10.77;;
48014;SDS011;33780;51.034;7.120;2024-03-07T06:31:41;22.92;;;11.25;;
48014;SDS011;33780;51.034;7.120;2024-03-07T06:34:07;17.75;;;10.23;;
48014;SDS011;33780;51.034;7.120;2024-03-07T06:36:36;20.63;;;10.93;;
48014;SDS011;33780;51.034;7.120;2024-03-07T06:39:02;20.70;;;10.60;;
48014;SDS011;33780;51.034;7.120;2024-03-07T06:41:34;21.60;;;10.27;;
48014;SDS011;33780;51.034;7.120;2024-03-07T06:44:00;21.52;;;10.63;;
48014;SDS011;33780;51.034;7.120;2024-03-07T06:46:25;20.67;;;11.38;;
48014;SDS011;33780;51.034;7.120;2024-03-07T06:48:51;20.25;;;10.82;;
48014;SDS011;33780;51.034;7.120;2024-03-07T06:51:16;22.83;;;11.02;;
48014;SDS011;33780;51.034;7.120;2024-03-07T06:53:45;20.10;;;10.48;;
48014;SDS011;33780;51.034;7.120;2024-03-07T06:56:12;21.00;;;11.02;;
48014;SDS011;33780;51.034;7.120;2024-03-07T06:58:37;20.98;;;11.20;;
48014;SDS011;33780;51.034;7.120;2024-03-07T07:01:03;23.15;;;12.38;;
48014;SDS011;33780;51.034;7.120;2024-03-07T07:03:32;20.98;;;11.05;;
48014;SDS011;33780;51.034;7.120;2024-03-07T07:05:57;21.15;;;11.05;;
48014;SDS011;33780;51.034;7.120;2024-03-07T07:08:23;22.40;;;11.18;;
48014;SDS011;33780;51.034;7.120;2024-03-07T07:10:49;21.65;;;11.13;;
48014;SDS011;33780;51.034;7.120;2024-03-07T07:13:15;20.63;;;11.27;;
48014;SDS011;33780;51.034;7.120;2024-03-07T07:15:40;20.15;;;10.40;;
48014;SDS011;33780;51.034;7.120;2024-03-07T07:18:06;21.45;;;11.75;;
48014;SDS011;33780;51.034;7.120;2024-03-07T07:20:35;23.33;;;12.18;;
48014;SDS011;33780;51.034;7.120;2024-03-07T07:23:01;21.13;;;11.15;;
48014;SDS011;33780;51.034;7.120;2024-03-07T07:25:28;23.52;;;11.52;;
48014;SDS011;33780;51.034;7.120;2024-03-07T07:27:54;23.90;;;11.75;;
48014;SDS011;33780;51.034;7.120;2024-03-07T07:30:20;21.33;;;11.57;;
48014;SDS011;33780;51.034;7.120;2024-03-07T07:32:50;23.30;;;11.77;;
48014;SDS011;33780;51.034;7.120;2024-03-07T07:35:17;23.70;;;11.32;;
48014;SDS011;33780;51.034;7.120;2024-03-07T07:37:47;23.17;;;12.27;;
48014;SDS011;33780;51.034;7.120;2024-03-07T07:40:15;21.73;;;12.25;;
48014;SDS011;33780;51.034;7.120;2024-03-07T07:42:43;23.33;;;12.25;;
48014;SDS011;33780;51.034;7.120;2024-03-07T07:45:11;22.85;;;11.95;;
48014;SDS011;33780;51.034;7.120;2024-03-07T07:47:41;23.33;;;12.02;;
48014;SDS011;33780;51.034;7.120;2024-03-07T07:50:08;21.30;;;12.00;;
48014;SDS011;33780;51.034;7.120;2024-03-07T07:52:44;25.55;;;12.07;;
48014;SDS011;33780;51.034;7.120;2024-03-07T07:55:13;25.67;;;12.85;;
48014;SDS011;33780;51.034;7.120;2024-03-07T07:57:46;22.80;;;13.00;;
48014;SDS011;33780;51.034;7.120;2024-03-07T08:00:14;25.55;;;13.50;;
48014;SDS011;33780;51.034;7.120;2024-03-07T08:03:07;23.45;;;12.48;;
48014;SDS011;33780;51.034;7.120;2024-03-07T08:05:33;23.60;;;12.70;;
48014;SDS011;33780;51.034;7.120;2024-03-07T08:08:03;26.08;;;13.18;;
48014;SDS011;33780;51.034;7.120;2024-03-07T08:10:31;22.90;;;11.77;;
48014;SDS011;33780;51.034;7.120;2024-03-07T08:12:58;24.35;;;12.95;;
48014;SDS011;33780;51.034;7.120;2024-03-07T08:15:27;23.48;;;12.68;;
48014;SDS011;33780;51.034;7.120;2024-03-07T08:17:55;24.63;;;12.90;;
48014;SDS011;33780;51.034;7.120;2024-03-07T08:20:22;21.83;;;12.57;;
48014;SDS011;33780;51.034;7.120;2024-03-07T08:22:50;24.83;;;12.90;;
48014;SDS011;33780;51.034;7.120;2024-03-07T08:25:17;22.42;;;12.50;;
48014;SDS011;33780;51.034;7.120;2024-03-07T08:27:51;22.85;;;12.70;;
48014;SDS011;33780;51.034;7.120;2024-03-07T08:30:21;20.83;;;11.90;;
48014;SDS011;33780;51.034;7.120;2024-03-07T08:32:51;23.38;;;12.10;;
48014;SDS011;33780;51.034;7.120;2024-03-07T08:35:17;19.73;;;11.20;;
48014;SDS011;33780;51.034;7.120;2024-03-07T08:37:44;19.55;;;11.18;;
48014;SDS011;33780;51.034;7.120;2024-03-07T08:40:10;20.95;;;12.18;;
48014;SDS011;33780;51.034;7.120;2024-03-07T08:42:43;22.85;;;11.95;;
48014;SDS011;33780;51.034;7.120;2024-03-07T08:45:08;22.50;;;12.25;;
48014;SDS011;33780;51.034;7.120;2024-03-07T08:47:35;22.35;;;11.43;;
48014;SDS011;33780;51.034;7.120;2024-03-07T08:50:02;21.95;;;12.15;;
48014;SDS011;33780;51.034;7.120;2024-03-07T08:52:33;20.95;;;12.25;;
48014;SDS011;33780;51.034;7.120;2024-03-07T08:55:38;20.42;;;11.88;;
48014;SDS011;33780;51.034;7.120;2024-03-07T08:58:07;21.17;;;11.30;;
48014;SDS011;33780;51.034;7.120;2024-03-07T09:00:42;22.63;;;11.18;;
48014;SDS011;33780;51.034;7.120;2024-03-07T09:03:10;20.52;;;11.38;;
48014;SDS011;33780;51.034;7.120;2024-03-07T09:05:35;20.90;;;11.10;;
48014;SDS011;33780;51.034;7.120;2024-03-07T09:08:04;20.95;;;11.00;;
48014;SDS011;33780;51.034;7.120;2024-03-07T09:10:30;19.58;;;10.85;;
48014;SDS011;33780;51.034;7.120;2024-03-07T09:12:56;19.65;;;10.35;;
48014;SDS011;33780;51.034;7.120;2024-03-07T09:15:22;20.23;;;10.93;;
48014;SDS011;33780;51.034;7.120;2024-03-07T09:17:47;20.58;;;10.88;;
48014;SDS011;33780;51.034;7.120;2024-03-07T09:20:13;22.30;;;11.45;;
48014;SDS011;33780;51.034;7.120;2024-03-07T09:22:43;20.73;;;11.25;;
48014;SDS011;33780;51.034;7.120;2024-03-07T09:25:09;22.63;;;11.30;;
48014;SDS011;33780;51.034;7.120;2024-03-07T09:27:35;19.48;;;10.98;;
48014;SDS011;33780;51.034;7.120;2024-03-07T09:30:02;23.10;;;11.98;;
48014;SDS011;33780;51.034;7.120;2024-03-07T09:32:28;21.60;;;11.68;;
48014;SDS011;33780;51.034;7.120;2024-03-07T09:34:58;21.90;;;11.68;;
48014;SDS011;33780;51.034;7.120;2024-03-07T09:37:23;19.30;;;10.90;;
48014;SDS011;33780;51.034;7.120;2024-03-07T09:39:48;19.92;;;11.70;;
48014;SDS011;33780;51.034;7.120;2024-03-07T09:42:14;21.38;;;10.85;;
48014;SDS011;33780;51.034;7.120;2024-03-07T09:44:42;18.13;;;10.40;;
48014;SDS011;33780;51.034;7.120;2024-03-07T09:47:10;18.90;;;9.98;;
48014;SDS011;33780;51.034;7.120;2024-03-07T09:49:37;17.85;;;10.30;;
48014;SDS011;33780;51.034;7.120;2024-03-07T09:52:06;22.63;;;10.60;;
48014;SDS011;33780;51.034;7.120;2024-03-07T09:54:37;19.90;;;11.07;;
48014;SDS011;33780;51.034;7.120;2024-03-07T09:57:03;19.35;;;11.10;;
48014;SDS011;33780;51.034;7.120;2024-03-07T09:59:34;20.73;;;11.20;;
48014;SDS011;33780;51.034;7.120;2024-03-07T10:02:04;20.50;;;10.85;;
48014;SDS011;33780;51.034;7.120;2024-03-07T10:04:41;19.38;;;10.23;;
48014;SDS011;33780;51.034;7.120;2024-03-07T10:07:14;21.63;;;11.18;;
48014;SDS011;33780;51.034;7.120;2024-03-07T10:09:40;18.05;;;10.43;;
48014;SDS011;33780;51.034;7.120;2024-03-07T10:12:06;19.17;;;10.45;;
48014;SDS011;33780;51.034;7.120;2024-03-07T10:14:35;18.48;;;10.68;;
48014;SDS011;33780;51.034;7.120;2024-03-07T10:17:01;20.73;;;10.70;;
48014;SDS011;33780;51.034;7.120;2024-03-07T10:19:28;18.75;;;10.52;;
48014;SDS011;33780;51.034;7.120;2024-03-07T10:21:53;18.33;;;10.20;;
48014;SDS011;33780;51.034;7.120;2024-03-07T10:24:24;20.30;;;10.45;;
48014;SDS011;33780;51.034;7.120;2024-03-07T10:26:50;17.95;;;9.93;;
48014;SDS011;33780;51.034;7.120;2024-03-07T10:29:16;18.27;;;10.00;;
48014;SDS011;33780;51.034;7.120;2024-03-07T10:31:42;19.15;;;10.20;;
48014;SDS011;33780;51.034;7.120;2024-03-07T10:34:09;20.02;;;11.30;;
48014;SDS011;33780;51.034;7.120;2024-03-07T10:36:34;18.73;;;10.23;;
48014;SDS011;33780;51.034;7.120;2024-03-07T10:39:00;16.23;;;9.73;;
48014;SDS011;33780;51.034;7.120;2024-03-07T10:41:27;17.77;;;10.00;;
48014;SDS011;33780;51.034;7.120;2024-03-07T10:43:55;17.95;;;10.93;;
48014;SDS011;33780;51.034;7.120;2024-03-07T10:46:23;18.92;;;10.68;;
48014;SDS011;33780;51.034;7.120;2024-03-07T10:48:50;18.10;;;10.50;;
48014;SDS011;33780;51.034;7.120;2024-03-07T10:51:29;19.13;;;10.68;;
48014;SDS011;33780;51.034;7.120;2024-03-07T10:59:41;18.92;;;10.70;;
48014;SDS011;33780;51.034;7.120;2024-03-07T11:02:37;17.95;;;9.82;;
48014;SDS011;33780;51.034;7.120;2024-03-07T11:05:07;19.45;;;10.00;;
48014;SDS011;33780;51.034;7.120;2024-03-07T11:07:37;17.90;;;9.77;;
48014;SDS011;33780;51.034;7.120;2024-03-07T11:10:03;17.67;;;9.93;;
48014;SDS011;33780;51.034;7.120;2024-03-07T11:12:36;16.20;;;9.68;;
48014;SDS011;33780;51.034;7.120;2024-03-07T11:15:04;17.58;;;9.93;;
48014;SDS011;33780;51.034;7.120;2024-03-07T11:17:31;17.33;;;9.60;;
48014;SDS011;33780;51.034;7.120;2024-03-07T11:20:20;16.80;;;10.13;;
48014;SDS011;33780;51.034;7.120;2024-03-07T11:22:59;16.10;;;9.02;;
48014;SDS011;33780;51.034;7.120;2024-03-07T11:25:26;16.65;;;9.18;;
48014;SDS011;33780;51.034;7.120;2024-03-07T11:27:53;15.88;;;9.48;;
48014;SDS011;33780;51.034;7.120;2024-03-07T11:30:20;17.67;;;10.05;;
48014;SDS011;33780;51.034;7.120;2024-03-07T11:32:47;14.60;;;8.60;;
48014;SDS011;33780;51.034;7.120;2024-03-07T11:35:18;16.92;;;9.63;;
48014;SDS011;33780;51.034;7.120;2024-03-07T11:37:55;17.20;;;9.18;;
48014;SDS011;33780;51.034;7.120;2024-03-07T11:42:52;15.45;;;9.25;;
48014;SDS011;33780;51.034;7.120;2024-03-07T11:45:23;15.70;;;9.30;;
48014;SDS011;33780;51.034;7.120;2024-03-07T11:47:54;13.73;;;8.38;;
48014;SDS011;33780;51.034;7.120;2024-03-07T11:50:34;15.30;;;9.13;;
48014;SDS011;33780;51.034;7.120;2024-03-07T11:53:03;15.30;;;8.38;;
48014;SDS011;33780;51.034;7.120;2024-03-07T11:55:34;15.77;;;8.63;;
48014;SDS011;33780;51.034;7.120;2024-03-07T11:58:16;15.45;;;8.90;;
48014;SDS011;33780;51.034;7.120;2024-03-07T12:00:49;15.45;;;8.20;;
48014;SDS011;33780;51.034;7.120;2024-03-07T12:03:19;13.85;;;8.35;;
48014;SDS011;33780;51.034;7.120;2024-03-07T12:05:50;13.60;;;8.13;;
48014;SDS011;33780;51.034;7.120;2024-03-07T12:08:17;13.82;;;8.05;;
48014;SDS011;33780;51.034;7.120;2024-03-07T12:10:43;13.57;;;7.88;;
48014;SDS011;33780;51.034;7.120;2024-03-07T12:13:09;13.60;;;8.05;;
48014;SDS011;33780;51.034;7.120;2024-03-07T12:15:36;11.73;;;7.43;;
48014;SDS011;33780;51.034;7.120;2024-03-07T12:18:03;12.63;;;7.47;;
48014;SDS011;33780;51.034;7.120;2024-03-07T12:20:34;11.95;;;6.78;;
48014;SDS011;33780;51.034;7.120;2024-03-07T12:23:03;12.40;;;7.22;;
48014;SDS011;33780;51.034;7.120;2024-03-07T12:25:30;12.80;;;7.47;;
48014;SDS011;33780;51.034;7.120;2024-03-07T12:30:28;12.05;;;6.85;;
48014;SDS011;33780;51.034;7.120;2024-03-07T12:32:58;11.20;;;6.95;;
48014;SDS011;33780;51.034;7.120;2024-03-07T12:35:24;10.88;;;7.47;;
48014;SDS011;33780;51.034;7.120;2024-03-07T12:37:50;12.30;;;6.78;;
48014;SDS011;33780;51.034;7.120;2024-03-07T12:40:15;11.60;;;7.80;;
48014;SDS011;33780;51.034;7.120;2024-03-07T12:42:47;12.38;;;7.45;;
48014;SDS011;33780;51.034;7.120;2024-03-07T12:45:15;10.07;;;6.53;;
48014;SDS011;33780;51.034;7.120;2024-03-07T12:47:43;10.73;;;6.47;;
48014;SDS011;33780;51.034;7.120;2024-03-07T12:50:09;10.55;;;6.70;;
48014;SDS011;33780;51.034;7.120;2024-03-07T12:52:39;10.38;;;6.28;;
48014;SDS011;33780;51.034;7.120;2024-03-07T12:55:05;11.57;;;7.40;;
48014;SDS011;33780;51.034;7.120;2024-03-07T12:57:31;10.75;;;7.40;;
48014;SDS011;33780;51.034;7.120;2024-03-07T12:59:56;12.95;;;7.47;;
48014;SDS011;33780;51.034;7.120;2024-03-07T13:02:22;11.20;;;7.15;;
48014;SDS011;33780;51.034;7.120;2024-03-07T13:04:52;10.27;;;6.93;;
48014;SDS011;33780;51.034;7.120;2024-03-07T13:07:18;12.00;;;7.63;;
48014;SDS011;33780;51.034;7.120;2024-03-07T13:09:43;11.30;;;7.25;;
48014;SDS011;33780;51.034;7.120;2024-03-07T13:12:09;12.02;;;7.85;;
48014;SDS011;33780;51.034;7.120;2024-03-07T13:14:35;10.98;;;7.45;;
48014;SDS011;33780;51.034;7.120;2024-03-07T13:17:03;11.35;;;7.25;;
48014;SDS011;33780;51.034;7.120;2024-03-07T13:19:29;10.75;;;6.75;;
48014;SDS011;33780;51.034;7.120;2024-03-07T13:21:55;12.30;;;7.30;;
48014;SDS011;33780;51.034;7.120;2024-03-07T13:24:22;12.48;;;6.70;;
48014;SDS011;33780;51.034;7.120;2024-03-07T13:26:48;11.65;;;7.13;;
48014;SDS011;33780;51.034;7.120;2024-03-07T13:29:14;9.23;;;6.43;;
48014;SDS011;33780;51.034;7.120;2024-03-07T13:31:40;11.13;;;6.93;;
48014;SDS011;33780;51.034;7.120;2024-03-07T13:34:11;11.27;;;6.80;;
48014;SDS011;33780;51.034;7.120;2024-03-07T13:36:42;10.48;;;6.82;;
48014;SDS011;33780;51.034;7.120;2024-03-07T13:39:09;11.00;;;6.70;;
48014;SDS011;33780;51.034;7.120;2024-03-07T13:41:40;10.68;;;6.75;;
48014;SDS011;33780;51.034;7.120;2024-03-07T13:44:05;10.55;;;6.57;;
48014;SDS011;33780;51.034;7.120;2024-03-07T13:46:31;10.88;;;7.22;;
48014;SDS011;33780;51.034;7.120;2024-03-07T13:48:58;11.18;;;6.70;;
48014;SDS011;33780;51.034;7.120;2024-03-07T13:51:32;9.38;;;6.32;;
48014;SDS011;33780;51.034;7.120;2024-03-07T13:54:00;9.30;;;6.28;;
48014;SDS011;33780;51.034;7.120;2024-03-07T14:14:49;9.48;;;5.65;;
48014;SDS011;33780;51.034;7.120;2024-03-07T14:31:42;9.75;;;5.45;;
48014;SDS011;33780;51.034;7.120;2024-03-07T14:34:16;7.93;;;5.28;;
48014;SDS011;33780;51.034;7.120;2024-03-07T14:36:53;9.90;;;5.63;;
48014;SDS011;33780;51.034;7.120;2024-03-07T14:39:50;9.27;;;5.78;;
48014;SDS011;33780;51.034;7.120;2024-03-07T14:42:18;8.02;;;5.30;;
48014;SDS011;33780;51.034;7.120;2024-03-07T14:44:45;8.52;;;5.28;;
48014;SDS011;33780;51.034;7.120;2024-03-07T14:47:13;7.72;;;5.13;;
48014;SDS011;33780;51.034;7.120;2024-03-07T14:49:41;8.73;;;5.30;;
48014;SDS011;33780;51.034;7.120;2024-03-07T14:52:07;8.95;;;5.20;;
48014;SDS011;33780;51.034;7.120;2024-03-07T14:54:39;9.43;;;5.45;;
48014;SDS011;33780;51.034;7.120;2024-03-07T14:57:05;9.43;;;5.07;;
48014;SDS011;33780;51.034;7.120;2024-03-07T14:59:32;8.82;;;5.40;;
48014;SDS011;33780;51.034;7.120;2024-03-07T15:01:58;8.45;;;5.30;;
48014;SDS011;33780;51.034;7.120;2024-03-07T15:04:25;9.68;;;5.70;;
48014;SDS011;33780;51.034;7.120;2024-03-07T15:06:56;8.68;;;5.80;;
48014;SDS011;33780;51.034;7.120;2024-03-07T15:09:22;9.18;;;6.13;;
48014;SDS011;33780;51.034;7.120;2024-03-07T15:11:48;9.70;;;6.20;;
48014;SDS011;33780;51.034;7.120;2024-03-07T15:14:14;9.18;;;5.53;;
48014;SDS011;33780;51.034;7.120;2024-03-07T15:16:40;10.68;;;5.80;;